Clarkston, Washington
Current Conditions -  °F | °C
As of 12:09 PM on Wednesday 28 Jan 2015 (Local Time) from KLWS Reporting Station
Overcast Overcast  
Wind Chill: 41°   Ceiling: 500
Heat Index: 41°   Visibility: 9mi
Dew Point: 39°   Wind: 0mph
Humidity: 93%   Direction: NA
Pressure: 30.4"   Gusts: NA
Location:  46.41°N, 117.04°W
Report Text: KLWS 282009Z 00000KT 9SM OVC005 05/04 A3040 RMK AO2 T00500039
Loading
Personal Weather Stations






























Interactive Weather Map New forecast layout! Learn more

10-Day Weather Forecast

Advertisements
Track Severe Weather on mobile